createdAt,value
2017-06-21T00:00:47.770Z,1013.74
2017-06-21T00:01:47.747Z,1013.79
2017-06-21T00:02:47.728Z,1013.73
2017-06-21T00:03:47.706Z,1013.69
2017-06-21T00:04:47.687Z,1013.68
2017-06-21T00:05:47.666Z,1013.68
2017-06-21T00:06:47.647Z,1013.7
2017-06-21T00:07:47.625Z,1013.74
2017-06-21T00:08:47.604Z,1013.68
2017-06-21T00:09:47.589Z,1013.69
2017-06-21T00:10:47.563Z,1013.68
2017-06-21T00:11:47.543Z,1013.67
2017-06-21T00:12:47.526Z,1013.67
2017-06-21T00:13:47.502Z,1013.68
2017-06-21T00:14:47.483Z,1013.71
2017-06-21T00:15:47.462Z,1013.68
2017-06-21T00:16:47.442Z,1013.77
2017-06-21T00:17:47.424Z,1013.74
2017-06-21T00:18:47.402Z,1013.75
2017-06-21T00:19:47.381Z,1013.68
2017-06-21T00:20:47.364Z,1013.69
2017-06-21T00:21:47.341Z,1013.73
2017-06-21T00:22:47.321Z,1013.72
2017-06-21T00:23:47.301Z,1013.76
2017-06-21T00:24:47.283Z,1013.77
2017-06-21T00:25:47.261Z,1013.76
2017-06-21T00:26:47.241Z,1013.73
2017-06-21T00:27:47.217Z,1013.71
2017-06-21T00:28:47.198Z,1013.68
2017-06-21T00:29:47.180Z,1013.71
2017-06-21T00:30:47.159Z,1013.72
2017-06-21T00:31:47.139Z,1013.76
2017-06-21T00:32:47.116Z,1013.7
2017-06-21T00:33:47.095Z,1013.72
2017-06-21T00:34:47.079Z,1013.71
2017-06-21T00:35:47.056Z,1013.72
2017-06-21T00:36:47.037Z,1013.75
2017-06-21T00:37:47.019Z,1013.78
2017-06-21T00:38:46.994Z,1013.8
2017-06-21T00:39:46.975Z,1013.77
2017-06-21T00:40:46.955Z,1013.77
2017-06-21T00:41:46.934Z,1013.79
2017-06-21T00:42:46.913Z,1013.79
2017-06-21T00:43:46.892Z,1013.73
2017-06-21T00:44:46.875Z,1013.76
2017-06-21T00:45:46.852Z,1013.74
2017-06-21T00:46:46.830Z,1013.78
2017-06-21T00:47:46.811Z,1013.71
2017-06-21T00:48:46.788Z,1013.69
2017-06-21T00:49:46.769Z,1013.71
2017-06-21T00:50:46.750Z,1013.71
2017-06-21T00:51:46.728Z,1013.74
2017-06-21T00:52:46.710Z,1013.7
2017-06-21T00:53:46.688Z,1013.74
2017-06-21T00:54:46.669Z,1013.71
2017-06-21T00:55:46.647Z,1013.66
2017-06-21T00:56:46.630Z,1013.66
2017-06-21T00:57:46.642Z,1013.66
2017-06-21T00:58:46.586Z,1013.71
2017-06-21T00:59:46.564Z,1013.71
2017-06-21T01:00:46.548Z,1013.7
2017-06-21T01:01:46.524Z,1013.74
2017-06-21T01:02:46.503Z,1013.74
2017-06-21T01:03:46.484Z,1013.72
2017-06-21T01:04:46.463Z,1013.69
2017-06-21T01:05:46.442Z,1013.72
2017-06-21T01:06:46.422Z,1013.74
2017-06-21T01:07:46.400Z,1013.75
2017-06-21T01:08:46.381Z,1013.8
2017-06-21T01:09:46.361Z,1013.79
2017-06-21T01:10:46.339Z,1013.8
2017-06-21T01:11:46.318Z,1013.76
2017-06-21T01:12:46.323Z,1013.79
2017-06-21T01:13:46.276Z,1013.79
2017-06-21T01:14:46.256Z,1013.8
2017-06-21T01:15:46.237Z,1013.79
2017-06-21T01:16:46.216Z,1013.81
2017-06-21T01:17:46.193Z,1013.82
2017-06-21T01:18:46.181Z,1013.81
2017-06-21T01:19:46.154Z,1013.86
2017-06-21T01:20:46.133Z,1013.87
2017-06-21T01:21:46.112Z,1013.82
2017-06-21T01:22:46.091Z,1013.83
2017-06-21T01:23:46.075Z,1013.82
2017-06-21T01:24:46.048Z,1013.87
2017-06-21T01:25:46.031Z,1013.88
2017-06-21T01:26:46.007Z,1013.86
2017-06-21T01:27:45.987Z,1013.9
2017-06-21T01:28:45.967Z,1013.88
2017-06-21T01:29:45.946Z,1013.89
2017-06-21T01:30:45.925Z,1013.93
2017-06-21T01:31:45.904Z,1013.92
2017-06-21T01:32:45.887Z,1013.89
2017-06-21T01:33:45.863Z,1013.93
2017-06-21T01:34:45.844Z,1013.91
2017-06-21T01:35:45.827Z,1013.86
2017-06-21T01:36:45.806Z,1013.91
2017-06-21T01:37:45.780Z,1013.92
2017-06-21T01:38:45.759Z,1013.93
2017-06-21T01:39:45.736Z,1013.95
2017-06-21T01:40:45.718Z,1013.93
2017-06-21T01:41:45.697Z,1013.9
2017-06-21T01:42:45.678Z,1013.97
2017-06-21T01:43:45.654Z,1013.97
2017-06-21T01:44:45.634Z,1013.94
2017-06-21T01:45:45.615Z,1013.95
2017-06-21T01:46:45.593Z,1013.98
2017-06-21T01:47:45.583Z,1013.99
2017-06-21T01:48:45.553Z,1013.96
2017-06-21T01:49:45.531Z,1014
2017-06-21T01:50:45.509Z,1014
2017-06-21T01:51:45.496Z,1013.98
2017-06-21T01:52:45.468Z,1013.97
2017-06-21T01:53:45.449Z,1014.01
2017-06-21T01:54:45.428Z,1014.02
2017-06-21T01:55:45.406Z,1014.05
2017-06-21T01:56:45.384Z,1014.01
2017-06-21T01:57:45.364Z,1013.95
2017-06-21T01:58:45.343Z,1013.93
2017-06-21T01:59:45.324Z,1013.98
2017-06-21T02:00:45.305Z,1013.97
2017-06-21T02:01:45.321Z,1013.97
2017-06-21T02:02:45.260Z,1013.88
2017-06-21T02:03:45.239Z,1013.95
2017-06-21T02:04:45.219Z,1013.92
2017-06-21T02:05:45.198Z,1013.96
2017-06-21T02:06:45.177Z,1013.99
2017-06-21T02:07:45.156Z,1013.9
2017-06-21T02:08:45.138Z,1013.91
2017-06-21T02:09:45.112Z,1013.89
2017-06-21T02:10:45.095Z,1013.88
2017-06-21T02:11:45.073Z,1013.91
2017-06-21T02:12:45.052Z,1013.9
2017-06-21T02:13:45.031Z,1013.87
2017-06-21T02:14:45.013Z,1013.92
2017-06-21T02:15:44.990Z,1013.91
2017-06-21T02:16:44.967Z,1013.88
2017-06-21T02:17:44.948Z,1013.85
2017-06-21T02:18:44.926Z,1013.86
2017-06-21T02:19:44.904Z,1013.83
2017-06-21T02:20:44.884Z,1013.8
2017-06-21T02:21:44.863Z,1013.79
2017-06-21T02:22:44.844Z,1013.81
2017-06-21T02:23:44.822Z,1013.81
2017-06-21T02:24:44.801Z,1013.76
2017-06-21T02:25:44.780Z,1013.75
2017-06-21T02:26:44.757Z,1013.74
2017-06-21T02:27:44.736Z,1013.76
2017-06-21T02:28:44.769Z,1013.73
2017-06-21T02:29:44.697Z,1013.71
2017-06-21T02:30:44.676Z,1013.67
2017-06-21T02:31:44.655Z,1013.68
2017-06-21T02:32:44.636Z,1013.68
2017-06-21T02:33:44.614Z,1013.74
2017-06-21T02:34:44.591Z,1013.76
2017-06-21T02:35:44.570Z,1013.78
2017-06-21T02:36:44.551Z,1013.75
2017-06-21T02:37:44.530Z,1013.74
2017-06-21T02:38:44.508Z,1013.68
2017-06-21T02:39:44.485Z,1013.7
2017-06-21T02:40:44.467Z,1013.66
2017-06-21T02:41:44.446Z,1013.72
2017-06-21T02:42:44.423Z,1013.69
2017-06-21T02:43:44.408Z,1013.65
2017-06-21T02:44:44.386Z,1013.68
2017-06-21T02:45:44.362Z,1013.67
2017-06-21T02:46:44.341Z,1013.68
2017-06-21T02:47:44.323Z,1013.71
2017-06-21T02:48:44.304Z,1013.71
2017-06-21T02:49:44.276Z,1013.71
2017-06-21T02:50:44.259Z,1013.71
2017-06-21T02:51:44.240Z,1013.72
2017-06-21T02:52:44.215Z,1013.73
2017-06-21T02:53:44.194Z,1013.69
2017-06-21T02:54:44.173Z,1013.71
2017-06-21T02:55:44.152Z,1013.68
2017-06-21T02:56:44.130Z,1013.73
2017-06-21T02:57:44.113Z,1013.7
2017-06-21T02:58:44.088Z,1013.67
2017-06-21T02:59:44.067Z,1013.7
2017-06-21T03:00:44.048Z,1013.65
2017-06-21T03:01:44.026Z,1013.67
2017-06-21T03:02:44.010Z,1013.7
2017-06-21T03:03:43.983Z,1013.66
2017-06-21T03:04:43.962Z,1013.66
2017-06-21T03:05:43.942Z,1013.69
2017-06-21T03:06:43.924Z,1013.66
2017-06-21T03:07:43.898Z,1013.65
2017-06-21T03:08:43.877Z,1013.68
2017-06-21T03:09:43.853Z,1013.62
2017-06-21T03:10:43.835Z,1013.66
2017-06-21T03:11:43.817Z,1013.69
2017-06-21T03:12:43.795Z,1013.74
2017-06-21T03:13:43.774Z,1013.7
2017-06-21T03:14:43.751Z,1013.67
2017-06-21T03:15:43.731Z,1013.67
2017-06-21T03:16:43.708Z,1013.65
2017-06-21T03:17:43.690Z,1013.62
2017-06-21T03:18:43.667Z,1013.64
2017-06-21T03:19:43.646Z,1013.64
2017-06-21T03:20:43.627Z,1013.68
2017-06-21T03:21:43.609Z,1013.64
2017-06-21T03:22:43.635Z,1013.66
2017-06-21T03:23:43.562Z,1013.65
2017-06-21T03:24:43.542Z,1013.61
2017-06-21T03:25:43.525Z,1013.64
2017-06-21T03:26:43.500Z,1013.59
2017-06-21T03:27:43.529Z,1013.6
2017-06-21T03:28:43.457Z,1013.57
2017-06-21T03:29:43.436Z,1013.57
2017-06-21T03:30:43.414Z,1013.6
2017-06-21T03:31:43.392Z,1013.59
2017-06-21T03:32:43.373Z,1013.59
2017-06-21T03:33:43.351Z,1013.57
2017-06-21T03:34:43.330Z,1013.59
2017-06-21T03:35:43.316Z,1013.58
2017-06-21T03:36:43.287Z,1013.58
2017-06-21T03:37:43.270Z,1013.59
2017-06-21T03:38:43.247Z,1013.56
2017-06-21T03:39:43.226Z,1013.63
2017-06-21T03:40:43.254Z,1013.58
2017-06-21T03:41:43.183Z,1013.59
2017-06-21T03:42:43.164Z,1013.59
2017-06-21T03:43:43.142Z,1013.54
2017-06-21T03:44:43.120Z,1013.53
2017-06-21T03:45:43.099Z,1013.57
2017-06-21T03:46:43.079Z,1013.54
2017-06-21T03:47:43.056Z,1013.51
2017-06-21T03:48:43.039Z,1013.52
2017-06-21T03:49:43.014Z,1013.51
2017-06-21T03:50:42.996Z,1013.49
2017-06-21T03:51:42.973Z,1013.53
2017-06-21T03:52:42.955Z,1013.53
2017-06-21T03:53:42.931Z,1013.47
2017-06-21T03:54:42.960Z,1013.44
2017-06-21T03:55:42.890Z,1013.49
2017-06-21T03:56:42.865Z,1013.46
2017-06-21T03:57:42.848Z,1013.46
2017-06-21T03:58:42.827Z,1013.45
2017-06-21T03:59:42.804Z,1013.46
2017-06-21T04:00:42.783Z,1013.45
2017-06-21T04:01:42.765Z,1013.42
2017-06-21T04:02:42.744Z,1013.46
2017-06-21T04:03:42.725Z,1013.42
2017-06-21T04:04:42.702Z,1013.41
2017-06-21T04:05:42.682Z,1013.41
2017-06-21T04:06:42.655Z,1013.49
2017-06-21T04:07:42.640Z,1013.47
2017-06-21T04:08:42.619Z,1013.45
2017-06-21T04:09:42.600Z,1013.46
2017-06-21T04:10:42.582Z,1013.49
2017-06-21T04:11:42.560Z,1013.5
2017-06-21T04:12:42.537Z,1013.49
2017-06-21T04:13:42.516Z,1013.55
2017-06-21T04:14:42.500Z,1013.55
2017-06-21T04:15:42.476Z,1013.46
2017-06-21T04:16:42.457Z,1013.52
2017-06-21T04:17:42.436Z,1013.49
2017-06-21T04:18:42.416Z,1013.53
2017-06-21T04:19:42.398Z,1013.53
2017-06-21T04:20:42.377Z,1013.52
2017-06-21T04:21:42.356Z,1013.48
2017-06-21T04:22:42.336Z,1013.51
2017-06-21T04:23:42.313Z,1013.54
2017-06-21T04:24:42.295Z,1013.58
2017-06-21T04:25:42.274Z,1013.52
2017-06-21T04:26:42.255Z,1013.54
2017-06-21T04:27:42.233Z,1013.5
2017-06-21T04:28:42.214Z,1013.49
2017-06-21T04:29:42.195Z,1013.48
2017-06-21T04:30:42.176Z,1013.5
2017-06-21T04:31:42.154Z,1013.46
2017-06-21T04:32:42.135Z,1013.47
2017-06-21T04:33:42.117Z,1013.49
2017-06-21T04:34:42.098Z,1013.51
2017-06-21T04:35:42.076Z,1013.47
2017-06-21T04:36:42.057Z,1013.46
2017-06-21T04:37:42.086Z,1013.49
2017-06-21T04:38:42.016Z,1013.48
2017-06-21T04:39:41.996Z,1013.5
2017-06-21T04:40:41.978Z,1013.52
2017-06-21T04:41:41.962Z,1013.51
2017-06-21T04:42:41.935Z,1013.55
2017-06-21T04:43:41.920Z,1013.56
2017-06-21T04:44:41.903Z,1013.5
2017-06-21T04:45:41.882Z,1013.48
2017-06-21T04:46:41.862Z,1013.49
2017-06-21T04:47:41.843Z,1013.51
2017-06-21T04:48:41.824Z,1013.51
2017-06-21T04:49:41.805Z,1013.51
2017-06-21T04:50:41.786Z,1013.59
2017-06-21T04:51:41.767Z,1013.57
2017-06-21T04:52:41.749Z,1013.61
2017-06-21T04:53:41.728Z,1013.55
2017-06-21T04:54:41.711Z,1013.61
2017-06-21T04:55:41.694Z,1013.61
2017-06-21T04:56:41.671Z,1013.63
2017-06-21T04:57:41.653Z,1013.6
2017-06-21T04:58:41.638Z,1013.62
2017-06-21T04:59:41.617Z,1013.62
2017-06-21T05:00:41.596Z,1013.66
2017-06-21T05:01:41.578Z,1013.7
2017-06-21T05:02:41.559Z,1013.71
2017-06-21T05:03:41.542Z,1013.78
2017-06-21T05:04:41.523Z,1013.75
2017-06-21T05:05:41.503Z,1013.7
2017-06-21T05:06:41.488Z,1013.71
2017-06-21T05:07:41.465Z,1013.75
2017-06-21T05:08:41.448Z,1013.76
2017-06-21T05:09:41.451Z,1013.72
2017-06-21T05:10:41.412Z,1013.7
2017-06-21T05:11:41.392Z,1013.71
2017-06-21T05:12:41.374Z,1013.72
2017-06-21T05:13:41.355Z,1013.69
2017-06-21T05:14:41.339Z,1013.71
2017-06-21T05:15:41.318Z,1013.76
2017-06-21T05:16:41.301Z,1013.69
2017-06-21T05:17:41.284Z,1013.76
2017-06-21T05:18:41.269Z,1013.71
2017-06-21T05:19:41.250Z,1013.71
2017-06-21T05:20:41.229Z,1013.71
2017-06-21T05:21:41.216Z,1013.67
2017-06-21T05:22:41.198Z,1013.71
2017-06-21T05:23:41.175Z,1013.71
2017-06-21T05:24:41.158Z,1013.72
2017-06-21T05:25:41.141Z,1013.67
2017-06-21T05:26:41.126Z,1013.68
2017-06-21T05:27:41.107Z,1013.68
2017-06-21T05:28:41.093Z,1013.71
2017-06-21T05:29:41.071Z,1013.72
2017-06-21T05:30:41.053Z,1013.66
2017-06-21T05:31:41.036Z,1013.69
2017-06-21T05:32:41.018Z,1013.77
2017-06-21T05:33:41.000Z,1013.81
2017-06-21T05:34:40.983Z,1013.73
2017-06-21T05:35:40.969Z,1013.88
2017-06-21T05:36:40.950Z,1013.83
2017-06-21T05:37:40.930Z,1013.86
2017-06-21T05:38:40.915Z,1013.87
2017-06-21T05:39:40.898Z,1013.84
2017-06-21T05:40:40.881Z,1013.9
2017-06-21T05:41:40.862Z,1013.9
2017-06-21T05:42:40.846Z,1013.88
2017-06-21T05:43:40.828Z,1013.95
2017-06-21T05:44:40.810Z,1013.91
2017-06-21T05:45:40.795Z,1013.87
2017-06-21T05:46:40.778Z,1013.9
2017-06-21T05:47:40.764Z,1013.97
2017-06-21T05:48:40.741Z,1013.89
2017-06-21T05:49:40.728Z,1013.94
2017-06-21T05:50:40.711Z,1013.93
2017-06-21T05:51:40.690Z,1013.91
2017-06-21T05:52:40.677Z,1013.9
2017-06-21T05:53:40.661Z,1013.9
2017-06-21T05:54:40.647Z,1013.89
2017-06-21T05:55:40.627Z,1013.9
2017-06-21T05:56:40.615Z,1013.91
2017-06-21T05:57:40.595Z,1013.86
2017-06-21T05:58:40.577Z,1013.9
2017-06-21T05:59:40.560Z,1013.88
2017-06-21T06:00:40.545Z,1013.85
2017-06-21T06:01:40.529Z,1013.83
2017-06-21T06:02:40.510Z,1013.83
2017-06-21T06:03:40.495Z,1013.87
2017-06-21T06:04:40.479Z,1013.92
2017-06-21T06:05:40.468Z,1013.91
2017-06-21T06:06:40.442Z,1013.93
2017-06-21T06:07:40.428Z,1013.9
2017-06-21T06:08:40.415Z,1013.93
2017-06-21T06:09:40.397Z,1013.93
2017-06-21T06:10:40.383Z,1013.9
2017-06-21T06:11:40.368Z,1013.89
2017-06-21T06:12:40.350Z,1013.88
2017-06-21T06:13:40.333Z,1013.84
2017-06-21T06:14:40.322Z,1013.84
2017-06-21T06:15:40.302Z,1013.82
2017-06-21T06:16:40.290Z,1013.82
2017-06-21T06:17:40.270Z,1013.91
2017-06-21T06:18:40.255Z,1013.83
2017-06-21T06:19:40.241Z,1013.83
2017-06-21T06:20:40.229Z,1013.83
2017-06-21T06:21:40.207Z,1013.8
2017-06-21T06:22:40.193Z,1013.84
2017-06-21T06:23:40.178Z,1013.82
2017-06-21T06:24:40.162Z,1013.83
2017-06-21T06:25:40.145Z,1013.77
2017-06-21T06:26:40.140Z,1013.83
2017-06-21T06:27:40.118Z,1013.76
2017-06-21T06:28:40.103Z,1013.78
2017-06-21T06:29:40.089Z,1013.8
2017-06-21T06:30:40.072Z,1013.77
2017-06-21T06:31:40.056Z,1013.79
2017-06-21T06:32:40.043Z,1013.78
2017-06-21T06:33:40.027Z,1013.82
2017-06-21T06:34:40.016Z,1013.84
2017-06-21T06:35:40.011Z,1013.84
2017-06-21T06:36:39.987Z,1013.81
2017-06-21T06:37:39.971Z,1013.79
2017-06-21T06:38:39.957Z,1013.76
2017-06-21T06:39:39.943Z,1013.72
2017-06-21T06:40:39.931Z,1013.7
2017-06-21T06:41:39.916Z,1013.67
2017-06-21T06:42:39.898Z,1013.7
2017-06-21T06:43:39.885Z,1013.6
2017-06-21T06:44:39.874Z,1013.59
2017-06-21T06:45:39.858Z,1013.64
2017-06-21T06:46:39.843Z,1013.63
2017-06-21T06:47:39.832Z,1013.67
2017-06-21T06:48:39.814Z,1013.65
2017-06-21T06:49:39.803Z,1013.65
2017-06-21T06:50:39.789Z,1013.65
2017-06-21T06:51:39.772Z,1013.7
2017-06-21T06:52:39.763Z,1013.7
2017-06-21T06:53:39.749Z,1013.72
2017-06-21T06:54:39.737Z,1013.67
2017-06-21T06:55:39.728Z,1013.68
2017-06-21T06:56:39.710Z,1013.73
2017-06-21T06:57:39.697Z,1013.6
2017-06-21T06:58:39.682Z,1013.61
2017-06-21T06:59:39.671Z,1013.62
2017-06-21T07:00:39.657Z,1013.59
2017-06-21T07:01:39.640Z,1013.6
2017-06-21T07:02:39.631Z,1013.54
2017-06-21T07:03:39.616Z,1013.57
2017-06-21T07:04:39.605Z,1013.49
2017-06-21T07:05:39.589Z,1013.49
2017-06-21T07:06:39.573Z,1013.47
2017-06-21T07:07:39.567Z,1013.43
2017-06-21T07:08:39.550Z,1013.5
2017-06-21T07:09:39.536Z,1013.48
2017-06-21T07:10:39.523Z,1013.43
2017-06-21T07:11:39.510Z,1013.48
2017-06-21T07:12:39.499Z,1013.52
2017-06-21T07:13:39.485Z,1013.46
2017-06-21T07:14:39.474Z,1013.49
2017-06-21T07:15:39.461Z,1013.48
2017-06-21T07:16:39.454Z,1013.53
2017-06-21T07:17:39.439Z,1013.55
2017-06-21T07:18:39.425Z,1013.55
2017-06-21T07:19:39.413Z,1013.51
2017-06-21T07:20:39.451Z,1013.47
2017-06-21T07:21:39.387Z,1013.46
2017-06-21T07:22:39.379Z,1013.47
2017-06-21T07:23:39.367Z,1013.5
2017-06-21T07:24:39.353Z,1013.51
2017-06-21T07:25:39.345Z,1013.5
2017-06-21T07:26:39.339Z,1013.44
2017-06-21T07:27:39.317Z,1013.54
2017-06-21T07:28:39.309Z,1013.48
2017-06-21T07:29:39.297Z,1013.47
2017-06-21T07:30:39.285Z,1013.44
2017-06-21T07:31:39.273Z,1013.41
2017-06-21T07:32:39.261Z,1013.43
2017-06-21T07:33:39.248Z,1013.49
2017-06-21T07:34:39.247Z,1013.46
2017-06-21T07:35:39.229Z,1013.48
2017-06-21T07:36:39.220Z,1013.48
2017-06-21T07:37:39.211Z,1013.53
2017-06-21T07:38:39.194Z,1013.46
2017-06-21T07:39:39.336Z,1013.51
2017-06-21T07:40:39.176Z,1013.49
2017-06-21T07:41:39.164Z,1013.46
2017-06-21T07:42:39.155Z,1013.45
2017-06-21T07:43:39.143Z,1013.49
2017-06-21T07:44:39.132Z,1013.43
2017-06-21T07:45:39.123Z,1013.46
2017-06-21T07:46:39.114Z,1013.41
2017-06-21T07:47:39.103Z,1013.38
2017-06-21T07:48:39.091Z,1013.35
2017-06-21T07:49:39.082Z,1013.39
2017-06-21T07:50:39.077Z,1013.37
2017-06-21T07:51:39.064Z,1013.32
2017-06-21T07:52:39.053Z,1013.33
2017-06-21T07:53:39.145Z,1013.36
2017-06-21T07:54:39.035Z,1013.33
2017-06-21T07:55:39.023Z,1013.37
2017-06-21T07:56:39.014Z,1013.43
2017-06-21T07:57:39.006Z,1013.37
2017-06-21T07:58:38.995Z,1013.31
2017-06-21T07:59:38.986Z,1013.37
2017-06-21T08:00:38.978Z,1013.37
2017-06-21T08:01:38.967Z,1013.39
2017-06-21T08:02:38.958Z,1013.42
2017-06-21T08:03:38.949Z,1013.36
2017-06-21T08:04:38.939Z,1013.29
2017-06-21T08:05:38.935Z,1013.32
2017-06-21T08:06:38.921Z,1013.3
2017-06-21T08:07:38.914Z,1013.34
2017-06-21T08:08:38.907Z,1013.25
2017-06-21T08:09:38.898Z,1013.24
2017-06-21T08:10:38.889Z,1013.24
2017-06-21T08:11:38.883Z,1013.29
2017-06-21T08:12:38.878Z,1013.34
2017-06-21T08:13:38.865Z,1013.28
2017-06-21T08:14:38.860Z,1013.28
2017-06-21T08:15:38.848Z,1013.24
2017-06-21T08:16:38.890Z,1013.26
2017-06-21T08:17:38.832Z,1013.21
2017-06-21T08:18:38.825Z,1013.24
2017-06-21T08:19:38.852Z,1013.26
2017-06-21T08:20:38.818Z,1013.33
2017-06-21T08:21:38.804Z,1013.27
2017-06-21T08:22:38.796Z,1013.24
2017-06-21T08:23:38.786Z,1013.32
2017-06-21T08:24:38.778Z,1013.26
2017-06-21T08:25:38.772Z,1013.27
2017-06-21T08:26:38.765Z,1013.28
2017-06-21T08:27:38.757Z,1013.27
2017-06-21T08:28:38.749Z,1013.27
2017-06-21T08:29:38.745Z,1013.34
2017-06-21T08:30:38.734Z,1013.29
2017-06-21T08:31:38.730Z,1013.35
2017-06-21T08:32:38.721Z,1013.37
2017-06-21T08:33:38.718Z,1013.3
2017-06-21T08:34:38.708Z,1013.35
2017-06-21T08:35:38.700Z,1013.29
2017-06-21T08:36:38.691Z,1013.29
2017-06-21T08:37:38.896Z,1013.24
2017-06-21T08:38:38.676Z,1013.18
2017-06-21T08:39:38.676Z,1013.19
2017-06-21T08:40:38.663Z,1013.17
2017-06-21T08:41:38.657Z,1013.14
2017-06-21T08:42:38.651Z,1013.14
2017-06-21T08:43:38.646Z,1013.12
2017-06-21T08:44:38.635Z,1013.13
2017-06-21T08:45:38.628Z,1013.18
2017-06-21T08:46:38.623Z,1013.12
2017-06-21T08:47:38.617Z,1013.11
2017-06-21T08:48:38.609Z,1013.11
2017-06-21T08:49:38.602Z,1013.1
2017-06-21T08:50:38.593Z,1013.14
2017-06-21T08:51:38.587Z,1013.22
2017-06-21T08:52:38.581Z,1013.13
2017-06-21T08:53:38.574Z,1013.08
2017-06-21T08:54:38.564Z,1013.04
2017-06-21T08:55:38.566Z,1013.1
2017-06-21T08:56:38.556Z,1013.1
2017-06-21T08:57:38.543Z,1013.09
2017-06-21T08:58:38.538Z,1013.08
2017-06-21T08:59:38.535Z,1013.08
2017-06-21T09:00:38.525Z,1013.08
2017-06-21T09:01:38.517Z,1013.1
2017-06-21T09:02:38.510Z,1013.05
2017-06-21T09:03:38.504Z,1013.03
2017-06-21T09:04:38.503Z,1013.04
2017-06-21T09:05:38.492Z,1013.07
2017-06-21T09:06:38.482Z,1013.08
2017-06-21T09:07:38.475Z,1013.06
2017-06-21T09:08:38.468Z,1013.07
2017-06-21T09:09:38.463Z,1013.09
2017-06-21T09:10:38.456Z,1013.08
2017-06-21T09:11:38.447Z,1013.05
2017-06-21T09:12:38.441Z,1013.03
2017-06-21T09:13:38.434Z,1013.05
2017-06-21T09:14:38.429Z,1013.08
2017-06-21T09:15:38.421Z,1013.07
2017-06-21T09:16:38.415Z,1013.04
2017-06-21T09:17:38.413Z,1013.06
2017-06-21T09:18:38.404Z,1013.1
2017-06-21T09:19:38.397Z,1013.07
2017-06-21T09:20:38.395Z,1013.09
2017-06-21T09:21:38.385Z,1013.07
2017-06-21T09:22:38.380Z,1013.11
2017-06-21T09:23:38.372Z,1013.06
2017-06-21T09:24:38.415Z,1012.99
2017-06-21T09:25:38.359Z,1013.02
2017-06-21T09:26:38.353Z,1013.08
2017-06-21T09:27:38.348Z,1013.02
2017-06-21T09:28:38.362Z,1013.03
2017-06-21T09:29:38.333Z,1013.01
2017-06-21T09:30:38.326Z,1013
2017-06-21T09:31:38.346Z,1012.97
2017-06-21T09:32:38.311Z,1012.98
2017-06-21T09:33:38.306Z,1012.94
2017-06-21T09:34:38.298Z,1012.96
2017-06-21T09:35:38.292Z,1012.96
2017-06-21T09:36:38.286Z,1012.99
2017-06-21T09:37:38.277Z,1012.99
2017-06-21T09:38:38.272Z,1012.99
2017-06-21T09:39:38.273Z,1012.92
2017-06-21T09:40:38.269Z,1012.92
2017-06-21T09:41:38.254Z,1012.92
2017-06-21T09:42:38.245Z,1012.94
2017-06-21T09:43:38.237Z,1012.92
2017-06-21T09:44:38.234Z,1012.97
2017-06-21T09:45:38.261Z,1012.94
2017-06-21T09:46:38.220Z,1013.02
2017-06-21T09:47:38.211Z,1013.06
2017-06-21T09:48:38.210Z,1013.04
2017-06-21T09:49:38.199Z,1013.05
2017-06-21T09:50:38.206Z,1013.02
2017-06-21T09:51:38.184Z,1013.02
2017-06-21T09:52:38.179Z,1013.05
2017-06-21T09:53:38.171Z,1013.05
2017-06-21T09:54:38.166Z,1013.04
2017-06-21T09:55:38.159Z,1013.05
2017-06-21T09:56:38.152Z,1013.05
2017-06-21T09:57:38.364Z,1013.03
2017-06-21T09:58:38.138Z,1013.04
2017-06-21T09:59:38.135Z,1013.01
2017-06-21T10:00:38.124Z,1012.97
2017-06-21T10:01:38.132Z,1013.03
2017-06-21T10:02:38.163Z,1012.94
2017-06-21T10:03:38.104Z,1013.05
2017-06-21T10:04:38.104Z,1013.01
2017-06-21T10:05:38.091Z,1013.05
2017-06-21T10:06:38.086Z,1012.98
2017-06-21T10:07:38.078Z,1013.04
2017-06-21T10:08:38.076Z,1013
2017-06-21T10:09:38.063Z,1013
2017-06-21T10:10:38.053Z,1012.97
2017-06-21T10:11:38.048Z,1012.96
2017-06-21T10:12:38.042Z,1012.9
2017-06-21T10:13:38.029Z,1012.96
2017-06-21T10:14:38.027Z,1012.97
2017-06-21T10:15:38.066Z,1012.95
2017-06-21T10:16:38.007Z,1012.96
2017-06-21T10:17:38.001Z,1012.94
2017-06-21T10:18:37.993Z,1012.93
2017-06-21T10:19:37.992Z,1012.92
2017-06-21T10:20:37.981Z,1012.97
2017-06-21T10:21:37.982Z,1012.96
2017-06-21T10:22:37.966Z,1012.99
2017-06-21T10:23:37.959Z,1012.96
2017-06-21T10:24:37.954Z,1012.95
2017-06-21T10:25:37.945Z,1012.96
2017-06-21T10:26:37.936Z,1012.92
2017-06-21T10:27:37.930Z,1012.92
2017-06-21T10:28:37.925Z,1012.92
2017-06-21T10:29:37.916Z,1012.95
2017-06-21T10:30:37.908Z,1012.93
2017-06-21T10:31:37.907Z,1012.92
2017-06-21T10:32:37.901Z,1012.96
2017-06-21T10:33:37.889Z,1012.96
2017-06-21T10:34:37.931Z,1012.92
2017-06-21T10:35:37.879Z,1012.98
2017-06-21T10:36:37.868Z,1012.98
2017-06-21T10:37:37.861Z,1012.99
2017-06-21T10:38:37.853Z,1012.93
2017-06-21T10:39:37.845Z,1012.88
2017-06-21T10:40:37.838Z,1012.88
2017-06-21T10:41:37.831Z,1012.91
2017-06-21T10:42:37.822Z,1012.88
2017-06-21T10:43:37.814Z,1012.92
2017-06-21T10:44:37.806Z,1012.93
2017-06-21T10:45:37.800Z,1012.91
2017-06-21T10:46:37.795Z,1012.96
2017-06-21T10:47:37.783Z,1012.93
2017-06-21T10:48:37.774Z,1012.95
2017-06-21T10:49:37.820Z,1012.88
2017-06-21T10:50:37.758Z,1012.9
2017-06-21T10:51:37.747Z,1012.91
2017-06-21T10:52:37.740Z,1012.86
2017-06-21T10:53:37.731Z,1012.87
2017-06-21T10:54:37.775Z,1012.77
2017-06-21T10:55:37.762Z,1012.79
2017-06-21T10:56:37.704Z,1012.87
2017-06-21T10:57:37.944Z,1012.82
2017-06-21T10:58:37.684Z,1012.82
2017-06-21T10:59:37.677Z,1012.85
2017-06-21T11:00:37.668Z,1012.85
2017-06-21T11:01:37.707Z,1012.83
2017-06-21T11:02:37.646Z,1012.83
2017-06-21T11:03:37.688Z,1012.84
2017-06-21T11:04:37.629Z,1012.84
2017-06-21T11:05:37.616Z,1012.88
2017-06-21T11:06:37.609Z,1012.85
2017-06-21T11:07:37.595Z,1012.82
2017-06-21T11:08:37.586Z,1012.82
2017-06-21T11:09:37.572Z,1012.77
2017-06-21T11:10:37.568Z,1012.74
2017-06-21T11:11:37.555Z,1012.72
2017-06-21T11:12:37.543Z,1012.74
2017-06-21T11:13:37.530Z,1012.7
2017-06-21T11:14:37.519Z,1012.69
2017-06-21T11:15:37.513Z,1012.7
2017-06-21T11:16:37.499Z,1012.65
2017-06-21T11:17:37.490Z,1012.62
2017-06-21T11:18:37.479Z,1012.73
2017-06-21T11:19:37.469Z,1012.75
2017-06-21T11:20:37.480Z,1012.72
2017-06-21T11:21:37.447Z,1012.71
2017-06-21T11:22:37.435Z,1012.73
2017-06-21T11:23:37.428Z,1012.66
2017-06-21T11:24:37.416Z,1012.61
2017-06-21T11:25:37.400Z,1012.62
2017-06-21T11:26:37.443Z,1012.68
2017-06-21T11:27:37.375Z,1012.61
2017-06-21T11:28:37.366Z,1012.59
2017-06-21T11:29:37.355Z,1012.65
2017-06-21T11:30:37.344Z,1012.62
2017-06-21T11:31:37.329Z,1012.61
2017-06-21T11:32:37.313Z,1012.57
2017-06-21T11:33:37.299Z,1012.59
2017-06-21T11:34:37.285Z,1012.56
2017-06-21T11:35:37.277Z,1012.59
2017-06-21T11:36:37.260Z,1012.55
2017-06-21T11:37:37.245Z,1012.53
2017-06-21T11:38:37.282Z,1012.55
2017-06-21T11:39:37.235Z,1012.47
2017-06-21T11:40:37.207Z,1012.44
2017-06-21T11:42:37.175Z,1012.4
2017-06-21T11:43:37.160Z,1012.37
2017-06-21T11:44:37.151Z,1012.31
2017-06-21T11:45:37.136Z,1012.33
2017-06-21T11:46:37.114Z,1012.34
2017-06-21T11:47:37.101Z,1012.3
2017-06-21T11:48:37.090Z,1012.29
2017-06-21T11:49:37.074Z,1012.3
2017-06-21T11:50:37.059Z,1012.3
2017-06-21T11:51:37.046Z,1012.29
2017-06-21T11:52:37.031Z,1012.26
2017-06-21T11:53:37.016Z,1012.26
2017-06-21T11:54:37.027Z,1012.24
2017-06-21T11:55:36.987Z,1012.22
2017-06-21T11:56:36.972Z,1012.21
2017-06-21T11:57:36.959Z,1012.24
2017-06-21T11:58:36.944Z,1012.14
2017-06-21T11:59:36.929Z,1012.15
2017-06-21T12:00:36.913Z,1012.05
2017-06-21T12:01:36.899Z,1012.12
2017-06-21T12:02:36.886Z,1012.08
2017-06-21T12:03:36.871Z,1012.02
2017-06-21T12:04:36.855Z,1012
2017-06-21T12:05:36.841Z,1011.99
2017-06-21T12:06:36.824Z,1011.97
2017-06-21T12:07:36.813Z,1011.95
2017-06-21T12:08:36.796Z,1011.92
2017-06-21T12:09:36.784Z,1011.95